Time;durP1;ratioP1;P1;durP2;ratioP2;P2;SDS_P1;SDS_P2;PMS_P1;PMS_P2;Temp;Humidity;BMP_temperature;BMP_pressure;BME280_temperature;BME280_humidity;BME280_pressure;Samples;Min_cycle;Max_cycle;Signal;HPM_P1;HPM_P2
2024/01/29 00:02:14;;;;;;;1.10;1.10;;;;;;;3.60;nan;59853.66;5034466;28;20229;-72
2024/01/29 00:04:40;;;;;;;1.27;1.27;;;;;;;3.78;nan;59806.09;5034688;28;20175;-70
2024/01/29 00:07:06;;;;;;;2.47;1.70;;;;;;;3.66;nan;59746.75;5032960;28;20172;-71
2024/01/29 00:09:31;;;;;;;1.20;1.20;;;;;;;3.96;nan;59730.13;5034093;28;20206;-73
2024/01/29 00:11:57;;;;;;;1.40;1.33;;;;;;;3.64;nan;59782.38;5033030;28;20221;-71
2024/01/29 00:14:22;;;;;;;1.23;1.23;;;;;;;3.54;nan;59623.50;5034009;28;20262;-70
2024/01/29 00:16:48;;;;;;;1.23;1.23;;;;;;;3.55;nan;59568.53;5034169;28;20202;-72
2024/01/29 00:19:13;;;;;;;1.47;1.40;;;;;;;3.55;nan;59639.19;5034481;28;20263;-71
2024/01/29 00:21:39;;;;;;;1.43;1.40;;;;;;;3.48;nan;59500.19;5034280;28;20195;-72
2024/01/29 00:24:05;;;;;;;1.13;1.13;;;;;;;3.61;nan;59344.94;5034094;28;20182;-70
2024/01/29 00:26:30;;;;;;;1.37;1.30;;;;;;;3.80;nan;59499.72;5034206;28;20562;-70
2024/01/29 00:28:56;;;;;;;1.30;1.30;;;;;;;3.93;nan;59408.06;5033874;28;20206;-72
2024/01/29 00:31:22;;;;;;;2.80;1.50;;;;;;;3.89;nan;59444.00;5033504;28;20190;-71
2024/01/29 00:33:48;;;;;;;1.60;1.50;;;;;;;3.85;nan;59439.59;5034030;28;20641;-70
2024/01/29 00:36:14;;;;;;;1.17;1.13;;;;;;;3.92;nan;59490.28;5032959;28;20229;-69
2024/01/29 00:38:40;;;;;;;1.17;1.17;;;;;;;3.92;nan;59300.91;5034009;28;20266;-72
2024/01/29 00:41:05;;;;;;;1.20;1.20;;;;;;;3.72;nan;59241.53;5032174;28;20270;-72
2024/01/29 00:43:32;;;;;;;1.40;1.30;;;;;;;3.70;nan;59135.28;5032223;28;20186;-72
2024/01/29 00:45:58;;;;;;;1.77;1.67;;;;;;;3.91;nan;59193.75;5033367;28;20171;-71
2024/01/29 00:48:25;;;;;;;1.17;1.17;;;;;;;3.88;nan;58973.88;5033617;28;20207;-71
2024/01/29 00:50:50;;;;;;;1.63;1.53;;;;;;;3.81;nan;58799.56;5033257;28;20202;-70
2024/01/29 00:53:16;;;;;;;1.50;1.40;;;;;;;3.78;nan;58717.50;5033773;28;20264;-71
2024/01/29 00:55:45;;;;;;;1.50;1.40;;;;;;;3.42;nan;58522.84;5032077;28;20179;-71
2024/01/29 00:58:11;;;;;;;1.20;1.20;;;;;;;3.63;nan;58461.41;5033080;28;20266;-69
2024/01/29 01:00:38;;;;;;;1.00;1.00;;;;;;;3.60;nan;58326.94;5032728;28;20178;-71
2024/01/29 01:03:05;;;;;;;1.57;1.47;;;;;;;3.67;nan;58256.31;5042728;28;20179;-72
2024/01/29 01:05:30;;;;;;;1.20;1.20;;;;;;;3.66;nan;58212.88;5042865;28;20183;-71
2024/01/29 01:07:56;;;;;;;1.50;1.40;;;;;;;3.44;nan;58136.06;5033106;28;20217;-72
2024/01/29 01:10:21;;;;;;;1.30;1.30;;;;;;;3.50;nan;57958.97;5032958;28;20187;-71
2024/01/29 01:12:47;;;;;;;1.30;1.30;;;;;;;3.61;nan;58290.72;5032884;28;20616;-72
2024/01/29 01:15:12;;;;;;;1.20;1.20;;;;;;;3.50;nan;57714.31;5032946;28;20172;-70
2024/01/29 01:17:38;;;;;;;1.03;1.03;;;;;;;3.37;nan;56870.31;5033029;28;20262;-69
2024/01/29 01:20:05;;;;;;;1.30;1.27;;;;;;;3.42;nan;56492.44;5031614;28;20248;-69
2024/01/29 01:22:31;;;;;;;1.30;1.23;;;;;;;3.15;nan;56479.03;5032894;28;20171;-70
2024/01/29 01:24:57;;;;;;;1.30;1.30;;;;;;;3.03;nan;55978.72;5031745;28;20190;-70
2024/01/29 01:27:22;;;;;;;1.00;1.00;;;;;;;3.09;nan;55682.22;5032847;28;20215;-70
2024/01/29 01:29:47;;;;;;;1.10;1.10;;;;;;;2.97;nan;55332.75;5032349;28;20202;-71
2024/01/29 01:32:13;;;;;;;1.03;1.03;;;;;;;3.28;nan;55132.09;5031484;28;20245;-71
2024/01/29 01:34:38;;;;;;;1.50;1.40;;;;;;;3.01;nan;54727.53;5032787;28;20250;-72
2024/01/29 01:37:04;;;;;;;1.17;1.17;;;;;;;3.01;nan;54601.13;5031506;28;20179;-71
2024/01/29 01:39:29;;;;;;;1.40;1.30;;;;;;;3.00;nan;54371.00;5032542;28;20627;-70
2024/01/29 01:41:55;;;;;;;1.00;1.00;;;;;;;3.19;nan;53896.31;5031607;28;20189;-70
2024/01/29 01:44:20;;;;;;;1.20;1.20;;;;;;;3.16;nan;53317.25;5031842;28;20183;-72
2024/01/29 01:46:46;;;;;;;1.43;1.33;;;;;;;3.17;nan;53488.94;5032128;28;20190;-70
2024/01/29 01:49:11;;;;;;;1.00;1.00;;;;;;;3.19;nan;52914.94;5032121;28;20199;-72
2024/01/29 01:51:37;;;;;;;1.20;1.20;;;;;;;3.01;nan;52575.41;5032386;28;20635;-70
2024/01/29 01:54:04;;;;;;;1.20;1.20;;;;;;;2.95;nan;51972.75;5032067;28;20278;-70
2024/01/29 01:56:31;;;;;;;3.57;1.30;;;;;;;2.82;nan;52066.13;5031869;28;20176;-69
2024/01/29 01:58:59;;;;;;;1.10;1.10;;;;;;;3.06;nan;52316.16;5031777;28;20694;-71
2024/01/29 02:01:26;;;;;;;1.20;1.20;;;;;;;3.21;nan;52949.66;5031183;28;20184;-70
2024/01/29 02:03:51;;;;;;;1.10;1.10;;;;;;;3.00;nan;53351.56;5046942;28;20245;-71
2024/01/29 02:06:17;;;;;;;1.20;1.20;;;;;;;2.78;nan;52846.97;5031494;28;20179;-71
2024/01/29 02:08:42;;;;;;;1.50;1.40;;;;;;;2.91;nan;52514.72;5031724;28;20199;-71
2024/01/29 02:11:08;;;;;;;1.40;1.30;;;;;;;2.93;nan;52066.38;5042032;28;20175;-70
2024/01/29 02:13:34;;;;;;;1.10;1.10;;;;;;;2.86;nan;51526.81;5031797;28;20172;-70
2024/01/29 02:16:02;;;;;;;1.20;1.20;;;;;;;2.62;nan;51642.25;5030276;28;20680;-71
2024/01/29 02:18:28;;;;;;;1.23;1.20;;;;;;;2.92;nan;51149.88;5037468;28;20199;-71
2024/01/29 02:20:54;;;;;;;1.10;1.10;;;;;;;2.90;nan;49622.31;5028250;28;20179;-70
2024/01/29 02:23:20;;;;;;;1.47;1.37;;;;;;;2.54;nan;48516.44;5030262;28;20178;-71
2024/01/29 02:25:45;;;;;;;1.20;1.20;;;;;;;2.76;nan;46421.19;5028642;28;20233;-72
2024/01/29 02:28:11;;;;;;;1.10;1.10;;;;;;;2.58;nan;43064.56;5030180;28;20705;-70
2024/01/29 02:30:36;;;;;;;1.50;1.40;;;;;;;2.59;nan;40839.47;5030987;28;20175;-70
2024/01/29 02:33:02;;;;;;;1.10;1.10;;;;;;;2.25;nan;36397.38;5032002;28;20171;-71
2024/01/29 02:35:27;;;;;;;1.13;1.13;;;;;;;2.45;nan;33211.13;5030048;28;20247;-71
2024/01/29 02:37:53;;;;;;;1.30;1.30;;;;;;;2.33;nan;31923.59;5031198;28;20244;-70
2024/01/29 02:40:18;;;;;;;1.47;1.37;;;;;;;2.04;nan;30627.44;5031583;28;20175;-70
2024/01/29 02:42:43;;;;;;;1.93;1.83;;;;;;;2.38;nan;30328.59;5031396;28;20175;-70
2024/01/29 02:45:09;;;;;;;1.23;1.23;;;;;;;2.28;nan;28405.25;5031398;28;20183;-70
2024/01/29 02:47:34;;;;;;;1.30;1.30;;;;;;;2.39;nan;24580.75;5031303;28;20179;-72
2024/01/29 02:50:00;;;;;;;1.23;1.23;;;;;;;2.52;nan;25225.63;5031367;28;20175;-71
2024/01/29 02:52:25;;;;;;;1.07;1.07;;;;;;;2.37;nan;25536.81;5031129;28;20175;-72
2024/01/29 02:54:50;;;;;;;1.53;1.43;;;;;;;2.46;nan;24584.13;5031174;28;20587;-70
2024/01/29 02:57:16;;;;;;;1.00;1.00;;;;;;;2.33;nan;23620.63;5030936;28;20181;-71
2024/01/29 02:59:41;;;;;;;1.73;1.63;;;;;;;2.32;nan;22025.72;5029717;28;20175;-70
2024/01/29 03:02:07;;;;;;;1.20;1.20;;;;;;;2.04;nan;22331.06;5029809;28;20571;-71
2024/01/29 03:04:32;;;;;;;1.03;1.03;;;;;;;2.21;nan;20427.38;5031156;28;20175;-70
2024/01/29 03:06:58;;;;;;;1.10;1.10;;;;;;;1.87;nan;18501.97;5031724;28;20194;-71
2024/01/29 03:09:23;;;;;;;1.10;1.10;;;;;;;2.06;nan;17555.25;5030873;28;20264;-71
2024/01/29 03:11:49;;;;;;;1.30;1.30;;;;;;;2.07;nan;16282.75;5030979;28;20674;-71
2024/01/29 03:14:14;;;;;;;1.10;1.10;;;;;;;2.10;nan;16283.88;5031128;28;20159;-70
2024/01/29 03:16:40;;;;;;;1.17;1.17;;;;;;;1.99;nan;15325.78;5033995;28;20540;-69
2024/01/29 03:19:07;;;;;;;1.10;1.10;;;;;;;1.75;nan;13728.13;5038236;28;20199;-70
2024/01/29 03:21:33;;;;;;;1.27;1.27;;;;;;;2.05;nan;11513.81;5031241;28;20160;-70
2024/01/29 03:23:58;;;;;;;1.37;1.37;;;;;;;2.18;nan;9294.59;5030738;28;20548;-71
2024/01/29 03:26:23;;;;;;;1.10;1.10;;;;;;;2.32;nan;8980.47;5029405;28;20179;-71
2024/01/29 03:28:49;;;;;;;1.47;1.37;;;;;;;2.38;nan;9299.63;5030645;28;20199;-71
2024/01/29 03:31:14;;;;;;;1.80;1.70;;;;;;;1.89;nan;9286.94;5030922;28;20317;-73
2024/01/29 03:33:40;;;;;;;1.20;1.20;;;;;;;2.40;nan;10570.84;5031109;28;20171;-70
2024/01/29 03:36:07;;;;;;;2.27;1.63;;;;;;;2.10;nan;10562.44;5030974;28;20163;-72
2024/01/29 03:38:33;;;;;;;1.20;1.20;;;;;;;2.09;nan;9927.19;5030858;28;20194;-70
2024/01/29 03:40:59;;;;;;;1.20;1.20;;;;;;;2.05;nan;8973.59;5030585;28;20175;-70
2024/01/29 03:43:25;;;;;;;1.60;1.50;;;;;;;1.82;nan;6747.41;5031009;28;20277;-72
2024/01/29 03:45:52;;;;;;;1.50;1.40;;;;;;;1.88;nan;6748.88;5030734;28;20217;-70
2024/01/29 03:48:18;;;;;;;1.10;1.10;;;;;;;2.09;nan;5802.00;5030440;28;20282;-71
2024/01/29 03:50:43;;;;;;;1.10;1.10;;;;;;;1.83;nan;5479.69;5030775;28;20309;-71
2024/01/29 03:53:09;;;;;;;1.13;1.13;;;;;;;2.08;nan;4533.59;5030320;28;20186;-74
2024/01/29 03:55:34;;;;;;;1.13;1.13;;;;;;;1.89;nan;3579.44;5030894;28;20184;-70
2024/01/29 03:58:00;;;;;;;1.70;1.60;;;;;;;1.95;nan;2946.94;5030623;28;20168;-70
2024/01/29 04:00:26;;;;;;;1.10;1.10;;;;;;;2.30;nan;3586.38;5030825;28;20163;-71
2024/01/29 04:02:52;;;;;;;1.57;1.47;;;;;;;2.01;nan;3898.34;5030591;28;20195;-70
2024/01/29 04:05:18;;;;;;;1.50;1.40;;;;;;;1.77;nan;4211.13;5030631;28;20171;-70
2024/01/29 04:07:48;;;;;;;2.07;1.50;;;;;;;1.92;nan;4213.72;5028823;28;20203;-71
2024/01/29 04:10:13;;;;;;;1.50;1.40;;;;;;;2.32;nan;5172.13;5030463;28;20203;-70
2024/01/29 04:12:39;;;;;;;1.30;1.30;;;;;;;2.34;nan;6758.84;5030585;28;20167;-70
2024/01/29 04:15:05;;;;;;;1.00;1.00;;;;;;;2.27;nan;7074.72;5029336;28;20265;-69
2024/01/29 04:17:30;;;;;;;1.30;1.30;;;;;;;2.04;nan;4215.78;5030318;28;20204;-71
2024/01/29 04:19:55;;;;;;;2.27;2.17;;;;;;;1.83;nan;2628.25;5030650;28;20182;-73
2024/01/29 04:22:21;;;;;;;1.50;1.40;;;;;;;1.83;nan;1678.38;5033827;28;20737;-70
2024/01/29 04:24:47;;;;;;;2.77;2.60;;;;;;;2.06;nan;1681.59;5047001;28;20256;-70
2024/01/29 04:27:12;;;;;;;1.77;1.67;;;;;;;2.03;nan;1681.13;5033739;28;20183;-71
2024/01/29 04:29:38;;;;;;;2.30;2.10;;;;;;;1.82;nan;1361.72;5033427;28;20586;-71
2024/01/29 04:32:04;;;;;;;1.83;1.73;;;;;;;1.91;nan;96.72;5034108;28;20589;-72
2024/01/29 04:34:29;;;;;;;1.90;1.80;;;;;;;1.91;nan;96.72;5033920;28;20223;-71
2024/01/29 04:36:55;;;;;;;1.90;1.80;;;;;;;2.03;nan;98.03;5033559;28;20180;-71
2024/01/29 04:39:20;;;;;;;2.07;1.97;;;;;;;1.75;nan;-537.75;5033429;28;20216;-71
2024/01/29 04:41:46;;;;;;;2.33;2.07;;;;;;;1.97;nan;-1168.41;5033764;28;20175;-71
2024/01/29 04:44:11;;;;;;;1.67;1.57;;;;;;;1.92;nan;-1485.16;5033767;28;20175;-73
2024/01/29 04:46:36;;;;;;;1.80;1.70;;;;;;;2.16;nan;-533.63;5033429;28;20182;-72
2024/01/29 04:49:02;;;;;;;1.73;1.63;;;;;;;1.79;nan;-220.97;5033450;28;20218;-70
2024/01/29 04:51:27;;;;;;;2.00;1.87;;;;;;;1.88;nan;412.91;5033720;28;20174;-71
2024/01/29 04:53:53;;;;;;;1.93;1.83;;;;;;;1.97;nan;97.38;5033129;28;20720;-71
2024/01/29 04:56:18;;;;;;;1.77;1.67;;;;;;;1.69;nan;-1803.31;5033410;28;20647;-71
2024/01/29 04:58:44;;;;;;;1.80;1.70;;;;;;;1.64;nan;-2435.94;5033680;28;20244;-70
2024/01/29 05:01:10;;;;;;;1.87;1.77;;;;;;;1.42;nan;-2753.41;5033391;28;20217;-71
2024/01/29 05:03:36;;;;;;;1.57;1.47;;;;;;;1.75;nan;-1802.78;5033388;28;20584;-72
2024/01/29 05:06:01;;;;;;;1.80;1.70;;;;;;;1.55;nan;-1804.38;5033361;28;20600;-72
2024/01/29 05:08:27;;;;;;;1.97;1.87;;;;;;;1.72;nan;-1486.84;5032799;28;20226;-70
2024/01/29 05:10:53;;;;;;;2.00;1.90;;;;;;;1.75;nan;-1802.81;5033236;28;20179;-71
2024/01/29 05:13:18;;;;;;;1.50;1.40;;;;;;;1.65;nan;-2751.94;5032067;28;20542;-72
2024/01/29 05:15:44;;;;;;;1.50;1.40;;;;;;;1.39;nan;-3701.25;5032267;28;20179;-69
2024/01/29 05:18:09;;;;;;;1.13;1.13;;;;;;;1.67;nan;-4647.75;5032811;28;20260;-73
2024/01/29 05:20:35;;;;;;;1.80;1.70;;;;;;;1.51;nan;-4016.56;5047973;28;20224;-70
2024/01/29 05:23:01;;;;;;;2.90;2.20;;;;;;;1.61;nan;-5279.59;5031035;28;20175;-71
2024/01/29 05:25:26;;;;;;;1.10;1.10;;;;;;;1.27;nan;-5595.94;5032802;28;20233;-71
2024/01/29 05:27:52;;;;;;;1.70;1.60;;;;;;;1.43;nan;-6542.56;5032482;28;20202;-69
2024/01/29 05:30:17;;;;;;;1.33;1.23;;;;;;;1.09;nan;-6857.97;5035318;28;20178;-69
2024/01/29 05:32:42;;;;;;;1.80;1.70;;;;;;;1.25;nan;-7173.50;5040475;28;20178;-72
2024/01/29 05:35:09;;;;;;;2.67;2.47;;;;;;;1.06;nan;-8119.19;5032292;28;20244;-70
2024/01/29 05:37:34;;;;;;;1.30;1.30;;;;;;;0.95;nan;-8749.19;5030322;28;20714;-70
2024/01/29 05:40:00;;;;;;;1.20;1.20;;;;;;;0.75;nan;-9693.44;5032389;28;20221;-70
2024/01/29 05:42:26;;;;;;;1.63;1.53;;;;;;;0.92;nan;-10009.31;5032346;28;20174;-70
2024/01/29 05:44:51;;;;;;;1.47;1.40;;;;;;;0.74;nan;-10323.16;5032347;28;20206;-71
2024/01/29 05:47:17;;;;;;;1.63;1.53;;;;;;;0.83;nan;-10953.50;5032475;28;20193;-70
2024/01/29 05:49:42;;;;;;;1.90;1.80;;;;;;;0.57;nan;-11895.59;5046425;28;20646;-71
2024/01/29 05:52:08;;;;;;;1.80;1.70;;;;;;;0.75;nan;-11897.22;5030938;28;20175;-70
2024/01/29 05:54:33;;;;;;;1.87;1.77;;;;;;;0.91;nan;-12528.09;5031365;28;20179;-71
2024/01/29 05:56:59;;;;;;;1.20;1.20;;;;;;;0.76;nan;-12526.72;5029854;28;20248;-69
2024/01/29 05:59:25;;;;;;;1.60;1.50;;;;;;;0.88;nan;-12527.91;5031199;28;20182;-69
2024/01/29 06:01:50;;;;;;;1.67;1.57;;;;;;;0.91;nan;-12528.09;5031001;28;20559;-70
2024/01/29 06:04:16;;;;;;;1.60;1.50;;;;;;;0.60;nan;-12210.53;5031923;28;20179;-72
2024/01/29 06:06:43;;;;;;;1.70;1.60;;;;;;;0.79;nan;-12527.00;5032190;28;20621;-70
2024/01/29 06:09:09;;;;;;;1.53;1.43;;;;;;;0.90;nan;-11898.50;5032104;28;20198;-70
2024/01/29 06:11:35;;;;;;;1.40;1.40;;;;;;;0.78;nan;-10953.13;5032076;28;20244;-71
2024/01/29 06:14:01;;;;;;;1.60;1.50;;;;;;;1.12;nan;-8749.84;5032123;28;20179;-70
2024/01/29 06:16:26;;;;;;;1.50;1.40;;;;;;;0.94;nan;-2756.44;5031965;28;20182;-70
2024/01/29 06:18:52;;;;;;;1.70;1.60;;;;;;;1.01;nan;2932.13;5030409;28;20217;-71
2024/01/29 06:21:17;;;;;;;1.20;1.20;;;;;;;0.86;nan;4195.00;5030302;28;20673;-69
2024/01/29 06:23:43;;;;;;;1.30;1.30;;;;;;;0.93;nan;5778.25;5028972;28;20176;-71
2024/01/29 06:26:09;;;;;;;1.67;1.57;;;;;;;1.25;nan;5784.94;5030864;28;20171;-71
2024/01/29 06:28:34;;;;;;;1.10;1.10;;;;;;;1.01;nan;15607.75;5029791;28;20195;-71
2024/01/29 06:31:00;;;;;;;1.00;1.00;;;;;;;1.03;nan;17196.63;5031617;28;20175;-70
2024/01/29 06:33:25;;;;;;;1.53;1.43;;;;;;;1.20;nan;26112.16;5031166;28;20531;-71
2024/01/29 06:35:51;;;;;;;1.40;1.30;;;;;;;1.32;nan;29945.25;5034642;28;20246;-70
2024/01/29 06:38:17;;;;;;;1.60;1.50;;;;;;;1.24;nan;30578.13;5036360;28;20229;-71
2024/01/29 06:40:43;;;;;;;1.10;1.10;;;;;;;1.39;nan;34738.41;5031590;28;20191;-72
2024/01/29 06:43:08;;;;;;;1.30;1.30;;;;;;;1.38;nan;41131.75;5029858;28;20194;-70
2024/01/29 06:45:35;;;;;;;1.00;1.00;;;;;;;1.21;nan;43377.16;5031294;28;20175;-70
2024/01/29 06:48:01;;;;;;;1.53;1.43;;;;;;;1.41;nan;49495.88;5030742;28;20591;-71
2024/01/29 06:50:27;;;;;;;1.17;1.17;;;;;;;1.66;nan;53236.38;5031028;28;20176;-70
2024/01/29 06:52:52;;;;;;;1.53;1.43;;;;;;;1.77;nan;54451.19;5031194;28;20186;-71
2024/01/29 06:55:20;;;;;;;1.07;1.07;;;;;;;1.76;nan;56056.03;5030758;28;20179;-71
2024/01/29 06:57:48;;;;;;;1.27;1.27;;;;;;;1.71;nan;56920.56;5031067;28;20249;-72
2024/01/29 07:00:14;;;;;;;1.20;1.20;;;;;;;2.13;nan;57500.66;5031250;28;20201;-71
2024/01/29 07:02:40;;;;;;;2.60;2.10;;;;;;;2.09;nan;58286.53;5030329;28;20171;-71
2024/01/29 07:05:05;;;;;;;1.37;1.37;;;;;;;2.11;nan;58636.06;5030742;28;20171;-71
2024/01/29 07:07:31;;;;;;;1.70;1.60;;;;;;;2.55;nan;59137.00;5030744;28;20182;-71
2024/01/29 07:09:57;;;;;;;1.87;1.67;;;;;;;2.67;nan;59278.75;5029417;28;20549;-71
2024/01/29 07:12:23;;;;;;;1.47;1.37;;;;;;;2.53;nan;59459.81;5030850;28;20174;-72
2024/01/29 07:14:53;;;;;;;1.47;1.37;;;;;;;2.70;nan;59452.31;5031150;28;20186;-71
2024/01/29 07:17:19;;;;;;;3.47;1.60;;;;;;;2.63;nan;59480.41;5030655;28;20172;-70
2024/01/29 07:19:47;;;;;;;1.67;1.57;;;;;;;2.74;nan;59560.06;5030829;28;20193;-71
2024/01/29 07:22:18;;;;;;;1.73;1.63;;;;;;;3.00;nan;59554.13;5030868;28;20243;-70
2024/01/29 07:24:44;;;;;;;1.83;1.73;;;;;;;3.22;nan;59590.56;5030774;28;20561;-70
2024/01/29 07:27:09;;;;;;;1.63;1.53;;;;;;;3.28;nan;59715.22;5030970;28;20249;-70
2024/01/29 07:29:35;;;;;;;1.80;1.70;;;;;;;3.52;nan;59828.22;5030751;28;20670;-72
2024/01/29 07:32:01;;;;;;;1.70;1.60;;;;;;;3.55;nan;59816.41;5030724;28;20692;-71
2024/01/29 07:34:26;;;;;;;1.57;1.47;;;;;;;3.52;nan;59825.13;5030563;28;20317;-71
2024/01/29 07:36:52;;;;;;;1.67;1.40;;;;;;;3.46;nan;59983.06;5030827;28;20551;-71
2024/01/29 07:39:17;;;;;;;1.00;1.00;;;;;;;3.40;nan;59885.53;5029851;28;20212;-73
2024/01/29 07:41:42;;;;;;;1.60;1.50;;;;;;;3.38;nan;59875.72;5030908;28;20182;-70
2024/01/29 07:44:08;;;;;;;1.40;1.37;;;;;;;3.27;nan;59992.16;5040616;28;20306;-73
2024/01/29 07:46:34;;;;;;;1.20;1.20;;;;;;;3.09;nan;59891.38;5030841;28;20179;-72
2024/01/29 07:49:02;;;;;;;1.17;1.17;;;;;;;3.33;nan;60008.38;5030806;28;20304;-71
2024/01/29 07:51:27;;;;;;;1.60;1.50;;;;;;;3.33;nan;59922.59;5030749;28;20183;-72
2024/01/29 07:53:53;;;;;;;1.30;1.30;;;;;;;3.49;nan;60013.59;5030620;28;20179;-72
2024/01/29 07:56:19;;;;;;;1.60;1.50;;;;;;;3.36;nan;59915.84;5031209;28;20179;-72
2024/01/29 07:58:44;;;;;;;1.90;1.80;;;;;;;3.02;nan;59984.47;5030865;28;20183;-72
2024/01/29 08:01:10;;;;;;;1.63;1.53;;;;;;;3.27;nan;60026.91;5034228;28;20181;-70
2024/01/29 08:03:35;;;;;;;1.60;1.50;;;;;;;3.00;nan;59919.19;5034352;28;20183;-72
2024/01/29 08:06:01;;;;;;;1.17;1.17;;;;;;;3.21;nan;60020.78;5034288;28;20175;-72
2024/01/29 08:08:28;;;;;;;1.43;1.33;;;;;;;3.11;nan;60082.75;5034382;28;20536;-71
2024/01/29 08:10:57;;;;;;;1.30;1.30;;;;;;;3.25;nan;59987.41;5034645;28;20247;-71
2024/01/29 08:13:22;;;;;;;1.20;1.20;;;;;;;3.10;nan;60089.78;5034347;28;20179;-70
2024/01/29 08:15:47;;;;;;;1.60;1.50;;;;;;;3.43;nan;60103.34;5034569;28;20183;-71
2024/01/29 08:18:13;;;;;;;1.50;1.40;;;;;;;3.55;nan;59983.00;5034255;28;20656;-71
2024/01/29 08:20:38;;;;;;;1.17;1.17;;;;;;;3.34;nan;60121.06;5034334;28;20168;-70
2024/01/29 08:23:04;;;;;;;1.10;1.10;;;;;;;3.42;nan;60119.91;5034255;28;20263;-71
2024/01/29 08:25:29;;;;;;;1.13;1.13;;;;;;;3.22;nan;59978.44;5034322;28;20179;-70
2024/01/29 08:27:55;;;;;;;1.17;1.17;;;;;;;3.27;nan;60001.69;5033811;28;20299;-70
2024/01/29 08:30:20;;;;;;;3.20;1.80;;;;;;;3.11;nan;60049.97;5033988;28;20661;-71
2024/01/29 08:32:46;;;;;;;1.40;1.30;;;;;;;3.15;nan;60071.53;5033976;28;20171;-70
2024/01/29 08:35:11;;;;;;;1.00;1.00;;;;;;;3.53;nan;60121.53;5034092;28;20255;-72
2024/01/29 08:37:37;;;;;;;1.73;1.63;;;;;;;3.70;nan;60092.56;5034177;28;20653;-71
2024/01/29 08:40:03;;;;;;;1.20;1.20;;;;;;;3.42;nan;60130.00;5034289;28;20175;-71
2024/01/29 08:42:28;;;;;;;1.10;1.10;;;;;;;3.83;nan;60177.22;5034011;28;20194;-71
2024/01/29 08:44:57;;;;;;;1.10;1.10;;;;;;;3.71;nan;60154.25;5033936;28;20172;-70
2024/01/29 08:47:22;;;;;;;1.20;1.20;;;;;;;1.24;nan;59826.19;5032412;28;20618;-69
2024/01/29 08:49:50;;;;;;;1.20;1.20;;;;;;;3.84;nan;59979.41;5043047;28;20198;-71
2024/01/29 08:52:15;;;;;;;1.07;1.07;;;;;;;4.02;nan;60334.88;5034441;28;20180;-71
2024/01/29 08:54:41;;;;;;;1.73;1.63;;;;;;;3.67;nan;60194.69;5033876;28;20175;-70
2024/01/29 08:57:06;;;;;;;1.27;1.20;;;;;;;4.35;nan;60083.72;5033485;28;20643;-72
2024/01/29 08:59:32;;;;;;;1.07;1.07;;;;;;;4.18;nan;60188.56;5032284;28;20215;-72
2024/01/29 09:01:57;;;;;;;1.20;1.20;;;;;;;4.12;nan;60330.91;5033441;28;20179;-71
2024/01/29 09:04:23;;;;;;;1.63;1.47;;;;;;;4.38;nan;60149.69;5033469;28;20176;-72
2024/01/29 09:06:49;;;;;;;1.43;1.37;;;;;;;4.42;nan;60038.44;5033704;28;20250;-71
2024/01/29 09:09:14;;;;;;;1.33;1.33;;;;;;;4.13;nan;60203.19;5032157;28;20735;-73
2024/01/29 09:11:40;;;;;;;1.17;1.17;;;;;;;4.60;nan;60214.16;5033121;28;20202;-72
2024/01/29 09:14:05;;;;;;;1.30;1.30;;;;;;;4.82;nan;60145.72;5033461;28;20202;-71
2024/01/29 09:16:32;;;;;;;1.63;1.53;;;;;;;4.70;nan;60291.66;5033761;28;20182;-71
2024/01/29 09:18:58;;;;;;;1.10;1.10;;;;;;;1.31;nan;59915.00;5033435;28;20534;-71
2024/01/29 09:21:24;;;;;;;1.70;1.60;;;;;;;5.05;nan;60251.81;5033682;28;20183;-71
2024/01/29 09:23:50;;;;;;;2.00;1.90;;;;;;;4.86;nan;60152.72;5033651;28;20172;-70
2024/01/29 09:26:15;;;;;;;1.57;1.47;;;;;;;5.11;nan;60185.16;5031843;28;20183;-74
2024/01/29 09:28:41;;;;;;;1.20;1.20;;;;;;;5.17;nan;60310.81;5032951;28;20249;-71
2024/01/29 09:31:07;;;;;;;1.30;1.30;;;;;;;5.26;nan;60333.56;5033316;28;20543;-69
2024/01/29 09:33:32;;;;;;;1.20;1.20;;;;;;;5.12;nan;60279.91;5033351;28;20262;-70
2024/01/29 09:35:58;;;;;;;1.40;1.30;;;;;;;5.78;nan;60304.50;5033365;28;20598;-70
2024/01/29 09:38:23;;;;;;;1.10;1.10;;;;;;;6.06;nan;60353.63;5033143;28;20657;-70
2024/01/29 09:40:49;;;;;;;1.17;1.17;;;;;;;5.97;nan;60300.44;5033158;28;20167;-70
2024/01/29 09:43:17;;;;;;;1.83;1.57;;;;;;;5.79;nan;60386.72;5032615;28;20250;-73
2024/01/29 09:45:43;;;;;;;1.50;1.40;;;;;;;5.99;nan;60210.91;5032896;28;20921;-69
2024/01/29 09:48:14;;;;;;;1.63;1.53;;;;;;;5.76;nan;60155.34;5032747;28;20748;-71
2024/01/29 09:50:41;;;;;;;1.50;1.40;;;;;;;6.19;nan;60297.19;5033039;28;20552;-72
2024/01/29 09:53:07;;;;;;;1.20;1.20;;;;;;;5.88;nan;60388.66;5032916;28;20167;-71
2024/01/29 09:55:33;;;;;;;1.20;1.20;;;;;;;6.12;nan;60418.06;5040450;28;20199;-72
2024/01/29 09:57:58;;;;;;;1.70;1.60;;;;;;;5.79;nan;60488.63;5031171;28;20561;-71
2024/01/29 10:00:23;;;;;;;1.20;1.20;;;;;;;6.07;nan;60382.63;5032395;28;20179;-71
2024/01/29 10:02:54;;;;;;;1.40;1.33;;;;;;;6.10;nan;60382.91;5031655;28;20186;-69
2024/01/29 10:05:19;;;;;;;1.60;1.50;;;;;;;6.31;nan;60459.09;5032953;28;20187;-69
2024/01/29 10:07:45;;;;;;;1.63;1.53;;;;;;;6.39;nan;60372.25;5032588;28;20171;-70
2024/01/29 10:10:11;;;;;;;1.10;1.10;;;;;;;6.53;nan;60471.09;5032405;28;20262;-69
2024/01/29 10:12:37;;;;;;;1.17;1.17;;;;;;;7.02;nan;60508.28;5031632;28;20199;-73
2024/01/29 10:15:03;;;;;;;1.50;1.40;;;;;;;6.87;nan;60483.84;5031943;28;20214;-71
2024/01/29 10:17:29;;;;;;;1.30;1.30;;;;;;;6.71;nan;60496.34;5031944;28;20171;-71
2024/01/29 10:19:54;;;;;;;1.67;1.57;;;;;;;6.46;nan;60430.84;5030731;28;20286;-72
2024/01/29 10:22:26;;;;;;;1.20;1.20;;;;;;;6.75;nan;60472.91;5031053;28;20555;-72
2024/01/29 10:25:13;;;;;;;1.63;1.53;;;;;;;6.63;nan;60477.22;5031634;28;20198;-69
2024/01/29 10:27:38;;;;;;;1.10;1.10;;;;;;;6.52;nan;60716.03;5031236;28;20258;-69
2024/01/29 10:30:05;;;;;;;1.70;1.60;;;;;;;6.73;nan;60454.88;5031369;28;20201;-69
2024/01/29 10:32:31;;;;;;;1.20;1.20;;;;;;;6.69;nan;60491.56;5031529;28;20175;-72
2024/01/29 10:34:56;;;;;;;1.20;1.20;;;;;;;6.94;nan;60489.16;5031385;28;20767;-70
2024/01/29 10:37:25;;;;;;;1.20;1.20;;;;;;;6.90;nan;60479.03;5031094;28;20175;-69
2024/01/29 10:40:00;;;;;;;1.20;1.20;;;;;;;7.18;nan;60474.88;5031249;28;20168;-70
2024/01/29 10:42:28;;;;;;;1.10;1.10;;;;;;;7.27;nan;60489.47;5031621;28;20250;-71
2024/01/29 10:44:58;;;;;;;1.10;1.10;;;;;;;7.34;nan;60504.97;5031329;28;20214;-71
2024/01/29 10:47:44;;;;;;;1.40;1.30;;;;;;;7.54;nan;60557.88;5031248;28;20175;-71
2024/01/29 10:50:11;;;;;;;1.60;1.50;;;;;;;6.46;nan;60458.16;5031091;28;20182;-71
2024/01/29 10:52:37;;;;;;;1.50;1.40;;;;;;;6.53;nan;60453.31;5029176;28;20227;-69
2024/01/29 10:55:05;;;;;;;1.10;1.10;;;;;;;6.76;nan;60446.13;5027814;28;20278;-71
2024/01/29 10:57:32;;;;;;;1.27;1.27;;;;;;;6.83;nan;60481.91;5029074;28;20175;-70
2024/01/29 10:59:59;;;;;;;1.30;1.30;;;;;;;6.87;nan;60473.69;5039279;28;20261;-71
2024/01/29 11:02:24;;;;;;;1.13;1.13;;;;;;;6.78;nan;60496.03;5028674;28;20193;-70
2024/01/29 11:04:50;;;;;;;1.00;1.00;;;;;;;7.09;nan;60485.09;5030738;28;20619;-70
2024/01/29 11:07:28;;;;;;;1.10;1.07;;;;;;;7.08;nan;60443.91;5031382;28;20213;-73
2024/01/29 11:10:14;;;;;;;1.20;1.20;;;;;;;7.27;nan;60474.81;5030822;28;20681;-72
2024/01/29 11:12:41;;;;;;;1.50;1.40;;;;;;;7.57;nan;60547.97;5029294;28;20180;-73
2024/01/29 11:15:07;;;;;;;1.43;1.37;;;;;;;7.73;nan;60553.22;5028874;28;20183;-70
2024/01/29 11:17:33;;;;;;;1.50;1.40;;;;;;;7.81;nan;60555.16;5029667;28;20178;-70
2024/01/29 11:20:02;;;;;;;1.13;1.13;;;;;;;7.80;nan;60597.22;5030757;28;20172;-72
2024/01/29 11:22:38;;;;;;;1.10;1.10;;;;;;;8.05;nan;60596.19;5029342;28;20171;-71
2024/01/29 11:25:08;;;;;;;1.45;1.35;;;;;;;8.16;nan;60642.19;5030687;28;20216;-72
2024/01/29 11:27:36;;;;;;;1.50;1.40;;;;;;;7.77;nan;60535.38;5028991;28;20250;-71
2024/01/29 11:30:21;;;;;;;1.20;1.20;;;;;;;8.19;nan;60558.50;5030489;28;20265;-70
2024/01/29 11:32:47;;;;;;;1.10;1.10;;;;;;;8.13;nan;60605.75;5030297;28;20309;-71
2024/01/29 11:35:15;;;;;;;1.50;1.40;;;;;;;8.18;nan;60615.91;5031341;28;20226;-73
2024/01/29 11:37:43;;;;;;;1.40;1.30;;;;;;;8.16;nan;60608.56;5034717;28;20170;-71
2024/01/29 11:40:32;;;;;;;1.40;1.30;;;;;;;8.05;nan;60603.81;5034189;28;20198;-72
2024/01/29 11:42:58;;;;;;;1.42;1.33;;;;;;;7.77;nan;60548.09;5034663;28;20188;-72
2024/01/29 11:45:24;;;;;;;1.50;1.40;;;;;;;7.89;nan;60596.59;5034329;28;20262;-71
2024/01/29 11:47:49;;;;;;;1.03;1.03;;;;;;;7.94;nan;60579.91;5033073;28;20171;-72
2024/01/29 11:50:15;;;;;;;1.40;1.30;;;;;;;8.35;nan;60594.84;5033866;28;20178;-71
2024/01/29 11:52:40;;;;;;;1.08;1.08;;;;;;;7.83;nan;60531.41;5034655;28;20167;-71
2024/01/29 11:55:06;;;;;;;1.30;1.30;;;;;;;7.21;nan;60549.34;5034529;28;20163;-70
2024/01/29 11:57:32;;;;;;;1.33;1.30;;;;;;;6.96;nan;60455.84;5034431;28;20254;-70